createdAt,value
2022-12-18T00:01:16.345Z,102849.84
2022-12-18T00:04:03.062Z,102851.16
2022-12-18T00:06:49.417Z,102855.78
2022-12-18T00:09:39.985Z,102855.91
2022-12-18T00:12:23.884Z,102848.16
2022-12-18T00:15:08.067Z,102851.50
2022-12-18T00:17:51.596Z,102856.66
2022-12-18T00:20:41.020Z,102852.94
2022-12-18T00:23:24.745Z,102856.91
2022-12-18T00:26:14.607Z,102854.84
2022-12-18T00:29:09.025Z,102851.75
2022-12-18T00:31:52.497Z,102839.16
2022-12-18T00:34:36.050Z,102846.16
2022-12-18T00:37:20.393Z,102844.44
2022-12-18T00:40:09.041Z,102848.44
2022-12-18T00:42:56.433Z,102841.34
2022-12-18T00:45:40.317Z,102844.78
2022-12-18T00:48:24.343Z,102838.88
2022-12-18T00:51:09.840Z,102846.75
2022-12-18T00:53:53.841Z,102835.84
2022-12-18T00:56:48.446Z,102831.06
2022-12-18T00:59:32.475Z,102829.09
2022-12-18T01:02:16.032Z,102835.97
2022-12-18T01:05:00.024Z,102828.66
2022-12-18T01:07:43.462Z,102836.81
2022-12-18T01:10:27.786Z,102835.53
2022-12-18T01:13:14.729Z,102841.16
2022-12-18T01:15:58.619Z,102842.16
2022-12-18T01:18:42.498Z,102839.81
2022-12-18T01:21:25.966Z,102847.03
2022-12-18T01:24:13.197Z,102854.41
2022-12-18T01:26:58.230Z,102855.75
2022-12-18T01:29:42.005Z,102869.59
2022-12-18T01:32:25.484Z,102867.03
2022-12-18T01:35:09.442Z,102870.88
2022-12-18T01:37:56.712Z,102869.59
2022-12-18T01:40:40.179Z,102867.88
2022-12-18T01:43:23.807Z,102868.19
2022-12-18T01:46:07.512Z,102868.84
2022-12-18T01:48:58.973Z,102868.09
2022-12-18T01:51:43.919Z,102869.91
2022-12-18T01:54:28.607Z,102871.72
2022-12-18T01:57:12.745Z,102865.50
2022-12-18T02:00:04.555Z,102871.16
2022-12-18T02:02:57.280Z,102871.28
2022-12-18T02:05:59.801Z,102870.97
2022-12-18T02:09:19.777Z,102877.72
2022-12-18T02:12:14.744Z,102885.22
2022-12-18T02:15:18.596Z,102883.03
2022-12-18T02:18:29.575Z,102878.41
2022-12-18T02:21:38.482Z,102883.91
2022-12-18T02:24:56.666Z,102886.91
2022-12-18T02:27:44.849Z,102886.84
2022-12-18T02:30:36.079Z,102883.53
2022-12-18T02:33:22.533Z,102881.63
2022-12-18T02:36:12.802Z,102889.94
2022-12-18T02:38:58.841Z,102900.06
2022-12-18T02:41:43.650Z,102904.72
2022-12-18T02:44:27.835Z,102903.06
2022-12-18T02:47:15.483Z,102907.38
2022-12-18T02:50:06.974Z,102910.69
2022-12-18T02:53:09.149Z,102921.00
2022-12-18T02:56:16.564Z,102905.31
2022-12-18T02:59:12.621Z,102912.19
2022-12-18T03:02:08.219Z,102919.03
2022-12-18T03:05:11.737Z,102914.38
2022-12-18T03:08:22.509Z,102910.69
2022-12-18T03:11:11.200Z,102908.69
2022-12-18T03:14:00.194Z,102912.81
2022-12-18T03:16:48.114Z,102919.31
2022-12-18T03:19:34.269Z,102912.34
2022-12-18T03:22:21.096Z,102919.50
2022-12-18T03:25:14.299Z,102918.66
2022-12-18T03:28:06.440Z,102925.13
2022-12-18T03:31:00.158Z,102927.13
2022-12-18T03:33:55.478Z,102921.31
2022-12-18T03:36:44.742Z,102924.97
2022-12-18T03:39:28.876Z,102920.50
2022-12-18T03:42:36.390Z,102912.38
2022-12-18T03:45:38.904Z,102915.53
2022-12-18T03:48:42.421Z,102918.69
2022-12-18T03:51:49.610Z,102915.03
2022-12-18T03:54:37.210Z,102909.88
2022-12-18T03:57:33.226Z,102916.84
2022-12-18T04:00:21.478Z,102923.00
2022-12-18T04:03:26.153Z,102926.00
2022-12-18T04:06:12.523Z,102921.47
2022-12-18T04:09:00.327Z,102923.50
2022-12-18T04:11:45.408Z,102920.34
2022-12-18T04:14:30.817Z,102920.25
2022-12-18T04:17:14.389Z,102912.69
2022-12-18T04:19:57.858Z,102917.81
2022-12-18T04:22:42.048Z,102925.66
2022-12-18T04:25:25.853Z,102931.44
2022-12-18T04:28:21.631Z,102936.13
2022-12-18T04:31:05.797Z,102933.81
2022-12-18T04:33:49.440Z,102939.44
2022-12-18T04:36:33.441Z,102934.75
2022-12-18T04:39:17.062Z,102936.13
2022-12-18T04:42:00.845Z,102936.81
2022-12-18T04:44:45.789Z,102945.75
2022-12-18T04:47:29.243Z,102948.72
2022-12-18T04:50:12.762Z,102942.09
2022-12-18T04:52:56.608Z,102952.56
2022-12-18T04:55:40.087Z,102952.03
2022-12-18T04:58:23.541Z,102952.41
2022-12-18T05:01:08.607Z,102955.84
2022-12-18T05:03:53.243Z,102956.19
2022-12-18T05:06:36.732Z,102959.84
2022-12-18T05:09:20.218Z,102959.84
2022-12-18T05:12:03.886Z,102950.88
2022-12-18T05:14:47.328Z,102949.44
2022-12-18T05:17:30.811Z,102955.03
2022-12-18T05:20:14.354Z,102954.75
2022-12-18T05:22:57.903Z,102953.06
2022-12-18T05:25:41.337Z,102955.94
2022-12-18T05:28:28.271Z,102956.88
2022-12-18T05:31:12.355Z,102963.69
2022-12-18T05:33:55.948Z,102976.34
2022-12-18T05:36:39.416Z,102977.88
2022-12-18T05:39:22.844Z,102980.19
2022-12-18T05:42:06.266Z,102986.34
2022-12-18T05:44:49.757Z,102990.28
2022-12-18T05:47:33.521Z,102990.66
2022-12-18T05:50:17.085Z,103002.13
2022-12-18T05:53:00.502Z,102991.66
2022-12-18T05:55:45.559Z,102995.13
2022-12-18T05:58:29.108Z,102996.31
2022-12-18T06:01:18.139Z,102999.28
2022-12-18T06:04:01.748Z,103004.09
2022-12-18T06:06:45.326Z,103002.25
2022-12-18T06:09:30.446Z,103005.44
2022-12-18T06:12:13.887Z,103007.06
2022-12-18T06:14:57.342Z,103011.06
2022-12-18T06:17:41.245Z,103011.53
2022-12-18T06:20:27.924Z,103019.53
2022-12-18T06:23:13.978Z,103024.59
2022-12-18T06:25:57.971Z,103027.72
2022-12-18T06:28:41.489Z,103038.53
2022-12-18T06:31:26.907Z,103023.19
2022-12-18T06:34:10.452Z,103031.00
2022-12-18T06:36:53.938Z,103034.69
2022-12-18T06:39:37.379Z,103043.97
2022-12-18T06:42:24.690Z,103046.59
2022-12-18T06:45:08.972Z,103041.16
2022-12-18T06:47:52.576Z,103042.84
2022-12-18T06:50:36.300Z,103045.66
2022-12-18T06:53:19.750Z,103055.78
2022-12-18T06:56:10.746Z,103056.63
2022-12-18T06:58:54.599Z,103060.78
2022-12-18T07:01:38.213Z,103061.50
2022-12-18T07:04:21.830Z,103071.81
2022-12-18T07:07:05.252Z,103077.88
2022-12-18T07:09:50.942Z,103082.22
2022-12-18T07:12:34.363Z,103071.81
2022-12-18T07:15:17.962Z,103059.97
2022-12-18T07:18:01.444Z,103057.00
2022-12-18T07:20:45.211Z,103065.41
2022-12-18T07:23:29.497Z,103070.53
2022-12-18T07:26:15.355Z,103070.13
2022-12-18T07:28:59.316Z,103075.50
2022-12-18T07:31:42.840Z,103073.13
2022-12-18T07:34:26.459Z,103077.44
2022-12-18T07:37:09.940Z,103068.78
2022-12-18T07:39:53.397Z,103074.59
2022-12-18T07:42:37.909Z,103065.13
2022-12-18T07:45:21.311Z,103060.84
2022-12-18T07:48:04.966Z,103064.13
2022-12-18T07:50:48.863Z,103072.03
2022-12-18T07:53:34.702Z,103073.19
2022-12-18T07:56:27.148Z,103077.06
2022-12-18T07:59:11.924Z,103077.53
2022-12-18T08:01:55.535Z,103071.78
2022-12-18T08:04:39.079Z,103071.78
2022-12-18T08:07:22.526Z,103073.63
2022-12-18T08:10:07.458Z,103076.97
2022-12-18T08:12:52.634Z,103075.50
2022-12-18T08:15:36.363Z,103080.81
2022-12-18T08:18:19.802Z,103085.44
2022-12-18T08:21:12.472Z,103083.59
2022-12-18T08:24:00.245Z,103080.22
2022-12-18T08:27:00.853Z,103078.78
2022-12-18T08:29:47.312Z,103079.97
2022-12-18T08:32:30.833Z,103084.56
2022-12-18T08:35:18.556Z,103078.66
2022-12-18T08:38:02.252Z,103079.16
2022-12-18T08:40:45.720Z,103073.84
2022-12-18T08:43:48.072Z,103080.16
2022-12-18T08:46:44.046Z,103090.00
2022-12-18T08:49:27.699Z,103089.00
2022-12-18T08:52:11.851Z,103095.16
2022-12-18T08:54:58.196Z,103095.47
2022-12-18T08:57:41.618Z,103086.66
2022-12-18T09:00:25.206Z,103099.84
2022-12-18T09:03:19.809Z,103104.63
2022-12-18T09:06:03.658Z,103112.13
2022-12-18T09:08:47.377Z,103121.44
2022-12-18T09:11:32.913Z,103122.44
2022-12-18T09:14:16.470Z,103122.78
2022-12-18T09:17:00.085Z,103120.44
2022-12-18T09:19:44.296Z,103125.59
2022-12-18T09:22:27.823Z,103120.09
2022-12-18T09:25:11.384Z,103114.94
2022-12-18T09:27:55.343Z,103127.28
2022-12-18T09:30:41.634Z,103131.41
2022-12-18T09:33:25.634Z,103132.44
2022-12-18T09:36:12.343Z,103129.03
2022-12-18T09:38:55.821Z,103137.09
2022-12-18T09:41:47.872Z,103129.09
2022-12-18T09:44:45.484Z,103118.75
2022-12-18T09:47:38.448Z,103121.09
2022-12-18T09:50:41.028Z,103103.47
2022-12-18T09:53:32.673Z,103096.97
2022-12-18T09:56:23.939Z,103097.28
2022-12-18T09:59:15.258Z,103093.94
2022-12-18T10:01:58.944Z,103089.66
2022-12-18T10:04:44.671Z,103077.72
2022-12-18T10:07:48.043Z,103063.63
2022-12-18T10:10:49.835Z,103070.25
2022-12-18T10:13:51.339Z,103059.81
2022-12-18T10:16:52.966Z,103046.31
2022-12-18T10:19:56.638Z,103048.63
2022-12-18T10:23:03.928Z,103061.56
2022-12-18T10:26:06.917Z,103059.38
2022-12-18T10:28:52.709Z,103063.16
2022-12-18T10:31:36.791Z,103064.41
2022-12-18T10:34:20.690Z,103066.69
2022-12-18T10:37:16.948Z,103053.16
2022-12-18T10:40:22.813Z,103052.75
2022-12-18T10:43:14.224Z,103047.00
2022-12-18T10:46:18.146Z,103050.81
2022-12-18T10:49:01.766Z,103045.84
2022-12-18T10:51:45.742Z,103040.16
2022-12-18T10:54:37.144Z,103034.59
2022-12-18T10:57:42.555Z,103035.97
2022-12-18T11:00:31.832Z,103033.22
2022-12-18T11:03:37.077Z,103034.91
2022-12-18T11:06:25.549Z,103020.97
2022-12-18T11:09:25.274Z,103021.59
2022-12-18T11:12:11.832Z,103021.16
2022-12-18T11:15:00.678Z,103018.28
2022-12-18T11:17:45.115Z,103012.09
2022-12-18T11:20:36.882Z,103021.19
2022-12-18T11:23:25.036Z,103014.63
2022-12-18T11:26:09.331Z,103014.59
2022-12-18T11:29:18.395Z,103018.97
2022-12-18T11:32:35.511Z,103017.84
2022-12-18T11:35:48.979Z,103018.03
2022-12-18T11:38:43.491Z,103022.06
2022-12-18T11:42:12.875Z,103023.81
2022-12-18T11:45:32.576Z,103024.97
2022-12-18T11:48:39.190Z,103024.72
2022-12-18T11:51:50.041Z,103013.28
2022-12-18T11:54:33.623Z,103020.19
2022-12-18T11:57:29.033Z,103015.88
2022-12-18T12:00:23.898Z,103024.47
2022-12-18T12:03:25.509Z,103034.75
2022-12-18T12:06:29.498Z,103030.53
2022-12-18T12:09:31.526Z,103035.59
2022-12-18T12:12:54.847Z,103038.47
2022-12-18T12:16:37.980Z,103033.03
2022-12-18T12:19:45.182Z,103039.16
2022-12-18T12:22:48.221Z,103035.19
2022-12-18T12:25:56.137Z,103037.63
2022-12-18T12:28:53.914Z,103040.97
2022-12-18T12:31:43.230Z,103050.34
2022-12-18T12:35:00.269Z,103050.97
2022-12-18T12:38:06.651Z,103059.53
2022-12-18T12:41:04.356Z,103062.19
2022-12-18T12:43:51.587Z,103065.56
2022-12-18T12:46:42.790Z,103069.63
2022-12-18T12:49:37.555Z,103060.72
2022-12-18T12:52:46.887Z,103063.47
2022-12-18T12:55:31.646Z,103060.72
2022-12-18T12:58:32.266Z,103057.00
2022-12-18T13:01:30.234Z,103045.41
2022-12-18T13:04:47.679Z,103034.78
2022-12-18T13:07:47.163Z,103016.53
2022-12-18T13:10:42.952Z,103009.66
2022-12-18T13:13:54.953Z,103013.50
2022-12-18T13:16:39.848Z,103009.53
2022-12-18T13:19:27.415Z,103019.41
2022-12-18T13:22:49.443Z,103026.78
2022-12-18T13:25:38.170Z,103029.63
2022-12-18T13:28:25.227Z,103025.53
2022-12-18T13:31:09.249Z,103035.81
2022-12-18T13:34:26.711Z,103030.53
2022-12-18T13:37:32.761Z,103021.44
2022-12-18T13:40:41.341Z,103019.25
2022-12-18T13:43:40.138Z,103019.47
2022-12-18T13:46:51.281Z,103008.53
2022-12-18T13:49:42.240Z,103017.22
2022-12-18T13:52:34.673Z,103015.03
2022-12-18T13:55:22.147Z,102997.16
2022-12-18T13:58:07.641Z,102993.09
2022-12-18T14:00:51.126Z,103000.16
2022-12-18T14:03:35.915Z,103001.25
2022-12-18T14:06:19.508Z,102998.66
2022-12-18T14:09:04.368Z,102977.75
2022-12-18T14:11:52.699Z,102985.56
2022-12-18T14:14:36.346Z,102984.78
2022-12-18T14:17:20.886Z,102989.47
2022-12-18T14:20:13.691Z,102986.25
2022-12-18T14:22:58.448Z,102994.38
2022-12-18T14:25:48.249Z,102992.13
2022-12-18T14:28:32.679Z,102981.09
2022-12-18T14:31:30.381Z,102969.41
2022-12-18T14:34:18.138Z,102967.53
2022-12-18T14:37:04.848Z,102954.38
2022-12-18T14:40:10.603Z,102943.72
2022-12-18T14:42:54.923Z,102938.84
2022-12-18T14:45:43.316Z,102936.91
2022-12-18T14:58:17.884Z,102922.91
2022-12-18T15:01:48.508Z,102929.31
2022-12-18T15:04:44.579Z,102925.25
2022-12-18T15:07:47.430Z,102936.59
2022-12-18T15:10:37.018Z,102943.94
2022-12-18T15:17:22.446Z,102964.19
2022-12-18T15:20:12.226Z,102962.19
2022-12-18T15:22:55.774Z,102973.75
2022-12-18T15:25:39.555Z,102962.38
2022-12-18T15:28:27.017Z,102957.06
2022-12-18T15:31:10.775Z,102960.75
2022-12-18T15:33:54.200Z,102957.97
2022-12-18T15:36:37.801Z,102951.91
2022-12-18T15:39:21.554Z,102955.31
2022-12-18T15:42:23.519Z,102958.09
2022-12-18T15:45:12.997Z,102965.63
2022-12-18T15:47:56.900Z,102970.38
2022-12-18T15:50:40.402Z,102974.91
2022-12-18T15:53:28.955Z,102972.50
2022-12-18T15:56:32.673Z,102978.19
2022-12-18T15:59:21.026Z,102975.59
2022-12-18T16:02:19.393Z,102956.72
2022-12-18T16:05:03.207Z,102957.78
2022-12-18T16:07:47.721Z,102953.53
2022-12-18T16:10:31.231Z,102941.22
2022-12-18T16:13:19.996Z,102946.19
2022-12-18T16:16:03.521Z,102940.94
2022-12-18T16:18:47.046Z,102935.97
2022-12-18T16:21:33.926Z,102925.13
2022-12-18T16:24:23.919Z,102934.91
2022-12-18T16:27:08.590Z,102931.63
2022-12-18T16:29:52.407Z,102922.38
2022-12-18T16:32:36.052Z,102926.72
2022-12-18T16:35:19.765Z,102926.16
2022-12-18T16:38:03.204Z,102923.91
2022-12-18T16:41:05.254Z,102929.75
2022-12-18T16:43:54.407Z,102928.63
2022-12-18T16:46:40.171Z,102917.00
2022-12-18T16:49:23.770Z,102910.19
2022-12-18T16:52:08.255Z,102896.44
2022-12-18T16:54:51.945Z,102897.59
2022-12-18T16:57:35.458Z,102914.63
2022-12-18T17:00:19.075Z,102916.66
2022-12-18T17:03:02.695Z,102922.50
2022-12-18T17:05:50.111Z,102920.25
2022-12-18T17:08:36.552Z,102912.03
2022-12-18T17:11:20.000Z,102912.88
2022-12-18T17:14:16.717Z,102901.72
2022-12-18T17:17:20.875Z,102896.03
2022-12-18T17:20:04.904Z,102900.19
2022-12-18T17:22:48.944Z,102916.00
2022-12-18T17:25:32.412Z,102917.59
2022-12-18T17:28:16.262Z,102914.97
2022-12-18T17:31:00.533Z,102903.78
2022-12-18T17:33:45.037Z,102902.16
2022-12-18T17:36:29.237Z,102902.16
2022-12-18T17:39:20.045Z,102902.44
2022-12-18T17:42:04.063Z,102902.94
2022-12-18T17:44:48.850Z,102915.25
2022-12-18T17:47:35.097Z,102920.34
2022-12-18T17:50:22.583Z,102928.91
2022-12-18T17:53:08.858Z,102923.31
2022-12-18T17:56:01.985Z,102915.44
2022-12-18T17:58:51.997Z,102907.34
2022-12-18T18:01:43.768Z,102896.59
2022-12-18T18:04:27.840Z,102887.22
2022-12-18T18:07:11.284Z,102886.63
2022-12-18T18:09:54.827Z,102883.19
2022-12-18T18:12:59.297Z,102879.84
2022-12-18T18:16:05.069Z,102875.25
2022-12-18T18:18:52.860Z,102870.38
2022-12-18T18:21:47.234Z,102868.03
2022-12-18T18:24:35.608Z,102865.66
